sensor_id;sensor_type;location;lat;lon;timestamp;pressure;altitude;pressure_sealevel;temperature;humidity
41686;BME280;27370;42.764;23.432;2022-12-29T00:01:34;96529.69;;;4.12;100.00
41686;BME280;27370;42.764;23.432;2022-12-29T00:04:01;96530.22;;;4.17;100.00
41686;BME280;27370;42.764;23.432;2022-12-29T00:06:27;96515.28;;;4.04;100.00
41686;BME280;27370;42.764;23.432;2022-12-29T00:08:52;96524.94;;;4.21;100.00
41686;BME280;27370;42.764;23.432;2022-12-29T00:11:21;96526.41;;;4.18;100.00
41686;BME280;27370;42.764;23.432;2022-12-29T00:13:47;96529.78;;;4.15;100.00
41686;BME280;27370;42.764;23.432;2022-12-29T00:16:33;96523.72;;;4.18;100.00
41686;BME280;27370;42.764;23.432;2022-12-29T00:18:59;96527.34;;;4.10;100.00
41686;BME280;27370;42.764;23.432;2022-12-29T00:21:25;96530.06;;;3.98;100.00
41686;BME280;27370;42.764;23.432;2022-12-29T00:24:13;96518.66;;;4.01;100.00
41686;BME280;27370;42.764;23.432;2022-12-29T00:26:56;96526.44;;;4.06;100.00
41686;BME280;27370;42.764;23.432;2022-12-29T00:29:40;96521.44;;;4.05;100.00
41686;BME280;27370;42.764;23.432;2022-12-29T00:32:25;96528.91;;;4.11;100.00
41686;BME280;27370;42.764;23.432;2022-12-29T00:35:11;96531.81;;;4.06;100.00
41686;BME280;27370;42.764;23.432;2022-12-29T00:37:43;96529.44;;;3.89;100.00
41686;BME280;27370;42.764;23.432;2022-12-29T00:40:29;96537.13;;;3.90;100.00
41686;BME280;27370;42.764;23.432;2022-12-29T00:43:13;96541.31;;;4.04;100.00
41686;BME280;27370;42.764;23.432;2022-12-29T00:45:57;96530.75;;;3.95;100.00
41686;BME280;27370;42.764;23.432;2022-12-29T00:48:23;96537.47;;;3.89;100.00
41686;BME280;27370;42.764;23.432;2022-12-29T00:51:07;96544.34;;;4.02;100.00
41686;BME280;27370;42.764;23.432;2022-12-29T00:53:33;96549.78;;;4.06;100.00
41686;BME280;27370;42.764;23.432;2022-12-29T00:55:59;96542.94;;;3.92;100.00
41686;BME280;27370;42.764;23.432;2022-12-29T00:58:29;96539.91;;;3.94;100.00
41686;BME280;27370;42.764;23.432;2022-12-29T01:01:02;96551.59;;;4.02;100.00
41686;BME280;27370;42.764;23.432;2022-12-29T01:03:28;96551.59;;;4.02;100.00
41686;BME280;27370;42.764;23.432;2022-12-29T01:05:54;96547.94;;;3.94;100.00
41686;BME280;27370;42.764;23.432;2022-12-29T01:08:19;96536.97;;;3.99;100.00
41686;BME280;27370;42.764;23.432;2022-12-29T01:10:45;96541.88;;;4.09;100.00
41686;BME280;27370;42.764;23.432;2022-12-29T01:13:10;96534.53;;;3.94;100.00
41686;BME280;27370;42.764;23.432;2022-12-29T01:15:36;96540.34;;;3.96;100.00
41686;BME280;27370;42.764;23.432;2022-12-29T01:18:01;96536.63;;;4.00;100.00
41686;BME280;27370;42.764;23.432;2022-12-29T01:20:27;96536.78;;;3.92;100.00
41686;BME280;27370;42.764;23.432;2022-12-29T01:22:54;96530.31;;;3.93;100.00
41686;BME280;27370;42.764;23.432;2022-12-29T01:25:19;96540.69;;;3.94;100.00
41686;BME280;27370;42.764;23.432;2022-12-29T01:27:45;96527.88;;;3.88;100.00
41686;BME280;27370;42.764;23.432;2022-12-29T01:30:11;96525.97;;;3.88;100.00
41686;BME280;27370;42.764;23.432;2022-12-29T01:32:37;96523.28;;;3.88;100.00
41686;BME280;27370;42.764;23.432;2022-12-29T01:35:03;96523.81;;;3.94;100.00
41686;BME280;27370;42.764;23.432;2022-12-29T01:37:28;96523.44;;;4.08;100.00
41686;BME280;27370;42.764;23.432;2022-12-29T01:39:54;96511.94;;;4.07;100.00
41686;BME280;27370;42.764;23.432;2022-12-29T01:42:23;96509.06;;;4.00;100.00
41686;BME280;27370;42.764;23.432;2022-12-29T01:44:52;96520.78;;;4.08;100.00
41686;BME280;27370;42.764;23.432;2022-12-29T01:49:56;96502.84;;;3.96;100.00
41686;BME280;27370;42.764;23.432;2022-12-29T01:52:22;96502.66;;;3.89;100.00
41686;BME280;27370;42.764;23.432;2022-12-29T01:54:52;96492.50;;;3.82;100.00
41686;BME280;27370;42.764;23.432;2022-12-29T01:57:28;96497.13;;;3.57;100.00
41686;BME280;27370;42.764;23.432;2022-12-29T02:00:07;96492.72;;;3.49;100.00
41686;BME280;27370;42.764;23.432;2022-12-29T02:02:47;96495.00;;;3.23;100.00
41686;BME280;27370;42.764;23.432;2022-12-29T02:08:04;96491.19;;;3.24;100.00
41686;BME280;27370;42.764;23.432;2022-12-29T02:10:31;96486.28;;;3.26;100.00
41686;BME280;27370;42.764;23.432;2022-12-29T02:12:57;96493.63;;;3.17;100.00
41686;BME280;27370;42.764;23.432;2022-12-29T02:15:45;96490.41;;;3.23;100.00
41686;BME280;27370;42.764;23.432;2022-12-29T02:32:05;96491.38;;;3.43;100.00
41686;BME280;27370;42.764;23.432;2022-12-29T02:38:29;96503.22;;;3.42;100.00
41686;BME280;27370;42.764;23.432;2022-12-29T02:40:43;96488.44;;;3.60;100.00
41686;BME280;27370;42.764;23.432;2022-12-29T02:43:39;96493.75;;;3.73;100.00
41686;BME280;27370;42.764;23.432;2022-12-29T02:49:13;96488.81;;;3.87;100.00
41686;BME280;27370;42.764;23.432;2022-12-29T02:51:50;96473.78;;;3.98;100.00
41686;BME280;27370;42.764;23.432;2022-12-29T02:54:19;96473.41;;;4.12;100.00
41686;BME280;27370;42.764;23.432;2022-12-29T03:00:10;96485.63;;;3.97;100.00
41686;BME280;27370;42.764;23.432;2022-12-29T03:11:02;96485.31;;;3.58;100.00
41686;BME280;27370;42.764;23.432;2022-12-29T03:13:44;96481.75;;;3.54;100.00
41686;BME280;27370;42.764;23.432;2022-12-29T03:16:41;96484.63;;;3.61;100.00
41686;BME280;27370;42.764;23.432;2022-12-29T03:19:19;96486.25;;;3.38;100.00
41686;BME280;27370;42.764;23.432;2022-12-29T03:21:55;96479.03;;;3.14;100.00
41686;BME280;27370;42.764;23.432;2022-12-29T03:24:47;96485.41;;;3.22;100.00
41686;BME280;27370;42.764;23.432;2022-12-29T03:27:20;96487.06;;;3.26;100.00
41686;BME280;27370;42.764;23.432;2022-12-29T03:29:51;96486.41;;;3.17;100.00
41686;BME280;27370;42.764;23.432;2022-12-29T03:32:22;96475.94;;;3.00;100.00
41686;BME280;27370;42.764;23.432;2022-12-29T03:34:49;96463.13;;;2.81;100.00
41686;BME280;27370;42.764;23.432;2022-12-29T03:37:18;96462.56;;;2.63;100.00
41686;BME280;27370;42.764;23.432;2022-12-29T03:39:46;96471.81;;;2.78;100.00
41686;BME280;27370;42.764;23.432;2022-12-29T03:42:18;96465.34;;;2.55;100.00
41686;BME280;27370;42.764;23.432;2022-12-29T03:44:45;96468.34;;;2.53;100.00
41686;BME280;27370;42.764;23.432;2022-12-29T03:47:14;96464.22;;;2.31;100.00
41686;BME280;27370;42.764;23.432;2022-12-29T03:49:40;96470.53;;;2.27;100.00
41686;BME280;27370;42.764;23.432;2022-12-29T03:52:06;96458.16;;;2.10;100.00
41686;BME280;27370;42.764;23.432;2022-12-29T03:54:36;96464.53;;;1.97;100.00
41686;BME280;27370;42.764;23.432;2022-12-29T03:57:02;96474.38;;;2.05;100.00
41686;BME280;27370;42.764;23.432;2022-12-29T03:59:37;96484.84;;;2.10;100.00
41686;BME280;27370;42.764;23.432;2022-12-29T04:02:03;96490.09;;;2.06;100.00
41686;BME280;27370;42.764;23.432;2022-12-29T04:04:28;96490.16;;;1.98;100.00
41686;BME280;27370;42.764;23.432;2022-12-29T04:06:54;96483.78;;;1.90;100.00
41686;BME280;27370;42.764;23.432;2022-12-29T04:09:20;96472.72;;;1.79;100.00
41686;BME280;27370;42.764;23.432;2022-12-29T04:11:48;96479.81;;;1.75;100.00
41686;BME280;27370;42.764;23.432;2022-12-29T04:14:13;96478.13;;;1.71;100.00
41686;BME280;27370;42.764;23.432;2022-12-29T04:16:39;96487.44;;;1.86;100.00
41686;BME280;27370;42.764;23.432;2022-12-29T04:19:06;96481.59;;;1.71;100.00
41686;BME280;27370;42.764;23.432;2022-12-29T04:21:32;96479.47;;;1.65;100.00
41686;BME280;27370;42.764;23.432;2022-12-29T04:23:58;96484.22;;;1.59;100.00
41686;BME280;27370;42.764;23.432;2022-12-29T04:26:23;96490.91;;;1.65;100.00
41686;BME280;27370;42.764;23.432;2022-12-29T04:29:02;96502.03;;;1.67;100.00
41686;BME280;27370;42.764;23.432;2022-12-29T04:31:38;96495.22;;;1.37;100.00
41686;BME280;27370;42.764;23.432;2022-12-29T04:34:04;96500.56;;;0.78;100.00
41686;BME280;27370;42.764;23.432;2022-12-29T04:36:31;96506.78;;;0.44;100.00
41686;BME280;27370;42.764;23.432;2022-12-29T04:38:56;96493.66;;;0.39;100.00
41686;BME280;27370;42.764;23.432;2022-12-29T04:41:23;96505.28;;;0.34;100.00
41686;BME280;27370;42.764;23.432;2022-12-29T04:43:49;96505.84;;;0.48;100.00
41686;BME280;27370;42.764;23.432;2022-12-29T04:46:32;96511.09;;;0.27;100.00
41686;BME280;27370;42.764;23.432;2022-12-29T04:49:00;96495.75;;;0.16;100.00
41686;BME280;27370;42.764;23.432;2022-12-29T04:51:41;96513.31;;;0.64;100.00
41686;BME280;27370;42.764;23.432;2022-12-29T04:54:08;96515.84;;;0.89;100.00
41686;BME280;27370;42.764;23.432;2022-12-29T04:56:34;96516.84;;;0.85;100.00
41686;BME280;27370;42.764;23.432;2022-12-29T04:59:00;96518.50;;;0.98;100.00
41686;BME280;27370;42.764;23.432;2022-12-29T05:01:26;96519.19;;;1.16;100.00
41686;BME280;27370;42.764;23.432;2022-12-29T05:03:52;96508.88;;;1.06;100.00
41686;BME280;27370;42.764;23.432;2022-12-29T05:06:17;96517.22;;;1.04;100.00
41686;BME280;27370;42.764;23.432;2022-12-29T05:08:43;96524.19;;;0.88;100.00
41686;BME280;27370;42.764;23.432;2022-12-29T05:11:09;96525.91;;;0.93;100.00
41686;BME280;27370;42.764;23.432;2022-12-29T05:13:36;96530.59;;;0.96;100.00
41686;BME280;27370;42.764;23.432;2022-12-29T05:16:02;96529.41;;;1.14;100.00
41686;BME280;27370;42.764;23.432;2022-12-29T05:18:27;96525.56;;;1.23;100.00
41686;BME280;27370;42.764;23.432;2022-12-29T05:20:53;96532.16;;;1.26;100.00
41686;BME280;27370;42.764;23.432;2022-12-29T05:23:20;96517.63;;;1.15;100.00
41686;BME280;27370;42.764;23.432;2022-12-29T05:25:51;96517.78;;;1.39;100.00
41686;BME280;27370;42.764;23.432;2022-12-29T05:28:20;96528.00;;;1.37;100.00
41686;BME280;27370;42.764;23.432;2022-12-29T05:30:55;96528.59;;;1.43;100.00
41686;BME280;27370;42.764;23.432;2022-12-29T05:33:20;96525.47;;;1.41;100.00
41686;BME280;27370;42.764;23.432;2022-12-29T05:35:48;96528.97;;;1.33;100.00
41686;BME280;27370;42.764;23.432;2022-12-29T05:38:13;96539.06;;;1.48;100.00
41686;BME280;27370;42.764;23.432;2022-12-29T05:40:39;96539.59;;;1.41;100.00
41686;BME280;27370;42.764;23.432;2022-12-29T05:43:14;96534.66;;;1.52;100.00
41686;BME280;27370;42.764;23.432;2022-12-29T05:46:00;96535.06;;;1.63;100.00
41686;BME280;27370;42.764;23.432;2022-12-29T05:48:57;96529.97;;;1.70;100.00
41686;BME280;27370;42.764;23.432;2022-12-29T05:55:08;96543.34;;;2.03;100.00
41686;BME280;27370;42.764;23.432;2022-12-29T05:57:35;96533.78;;;2.02;100.00
41686;BME280;27370;42.764;23.432;2022-12-29T06:00:09;96543.22;;;2.20;100.00
41686;BME280;27370;42.764;23.432;2022-12-29T06:02:40;96539.59;;;2.04;100.00
41686;BME280;27370;42.764;23.432;2022-12-29T06:05:06;96535.22;;;1.99;100.00
41686;BME280;27370;42.764;23.432;2022-12-29T06:07:33;96540.28;;;2.13;100.00
41686;BME280;27370;42.764;23.432;2022-12-29T06:09:59;96555.50;;;2.33;100.00
41686;BME280;27370;42.764;23.432;2022-12-29T06:12:24;96540.81;;;2.27;100.00
41686;BME280;27370;42.764;23.432;2022-12-29T06:14:52;96555.00;;;2.52;100.00
41686;BME280;27370;42.764;23.432;2022-12-29T06:17:17;96547.44;;;2.54;100.00
41686;BME280;27370;42.764;23.432;2022-12-29T06:19:43;96556.19;;;2.42;100.00
41686;BME280;27370;42.764;23.432;2022-12-29T06:22:09;96549.00;;;2.67;100.00
41686;BME280;27370;42.764;23.432;2022-12-29T06:24:39;96555.50;;;2.79;100.00
41686;BME280;27370;42.764;23.432;2022-12-29T06:27:05;96556.06;;;2.72;100.00
41686;BME280;27370;42.764;23.432;2022-12-29T06:29:30;96554.47;;;2.71;100.00
41686;BME280;27370;42.764;23.432;2022-12-29T06:31:56;96557.03;;;2.67;100.00
41686;BME280;27370;42.764;23.432;2022-12-29T06:34:24;96554.41;;;2.80;100.00
41686;BME280;27370;42.764;23.432;2022-12-29T06:36:50;96546.38;;;2.80;100.00
41686;BME280;27370;42.764;23.432;2022-12-29T06:39:15;96548.25;;;2.79;100.00
41686;BME280;27370;42.764;23.432;2022-12-29T06:41:48;96559.41;;;2.81;100.00
41686;BME280;27370;42.764;23.432;2022-12-29T06:44:31;96561.84;;;2.86;100.00
41686;BME280;27370;42.764;23.432;2022-12-29T06:47:00;96568.22;;;2.94;100.00
41686;BME280;27370;42.764;23.432;2022-12-29T06:49:26;96567.78;;;3.04;100.00
41686;BME280;27370;42.764;23.432;2022-12-29T06:51:51;96571.25;;;3.17;100.00
41686;BME280;27370;42.764;23.432;2022-12-29T06:54:16;96572.03;;;3.29;100.00
41686;BME280;27370;42.764;23.432;2022-12-29T06:56:42;96573.47;;;3.15;100.00
41686;BME280;27370;42.764;23.432;2022-12-29T06:59:09;96566.34;;;3.19;100.00
41686;BME280;27370;42.764;23.432;2022-12-29T07:01:35;96579.38;;;3.32;100.00
41686;BME280;27370;42.764;23.432;2022-12-29T07:04:02;96571.47;;;3.24;100.00
41686;BME280;27370;42.764;23.432;2022-12-29T07:06:27;96566.56;;;3.26;100.00
41686;BME280;27370;42.764;23.432;2022-12-29T07:08:53;96576.25;;;3.55;100.00
41686;BME280;27370;42.764;23.432;2022-12-29T07:11:21;96568.06;;;3.76;100.00
41686;BME280;27370;42.764;23.432;2022-12-29T07:13:46;96563.84;;;3.75;100.00
41686;BME280;27370;42.764;23.432;2022-12-29T07:16:12;96576.53;;;3.90;100.00
41686;BME280;27370;42.764;23.432;2022-12-29T07:18:37;96572.75;;;4.19;100.00
41686;BME280;27370;42.764;23.432;2022-12-29T07:21:03;96570.03;;;4.31;100.00
41686;BME280;27370;42.764;23.432;2022-12-29T07:23:29;96569.19;;;4.43;100.00
41686;BME280;27370;42.764;23.432;2022-12-29T07:26:08;96572.88;;;4.66;100.00
41686;BME280;27370;42.764;23.432;2022-12-29T07:28:36;96568.84;;;4.88;100.00
41686;BME280;27370;42.764;23.432;2022-12-29T07:31:04;96571.00;;;4.82;100.00
41686;BME280;27370;42.764;23.432;2022-12-29T07:33:30;96565.38;;;4.87;100.00
41686;BME280;27370;42.764;23.432;2022-12-29T07:35:55;96566.16;;;5.04;100.00
41686;BME280;27370;42.764;23.432;2022-12-29T07:38:21;96568.78;;;5.00;100.00
41686;BME280;27370;42.764;23.432;2022-12-29T07:40:46;96566.16;;;4.88;100.00
41686;BME280;27370;42.764;23.432;2022-12-29T07:43:12;96571.34;;;5.28;100.00
41686;BME280;27370;42.764;23.432;2022-12-29T07:45:43;96558.63;;;5.25;100.00
41686;BME280;27370;42.764;23.432;2022-12-29T07:48:09;96568.97;;;5.42;100.00
41686;BME280;27370;42.764;23.432;2022-12-29T07:50:37;96581.16;;;5.71;100.00
41686;BME280;27370;42.764;23.432;2022-12-29T07:53:03;96579.69;;;5.74;100.00
41686;BME280;27370;42.764;23.432;2022-12-29T07:55:29;96582.09;;;5.95;100.00
41686;BME280;27370;42.764;23.432;2022-12-29T07:57:55;96586.94;;;5.89;100.00
41686;BME280;27370;42.764;23.432;2022-12-29T08:00:22;96584.84;;;5.98;100.00
41686;BME280;27370;42.764;23.432;2022-12-29T08:02:47;96579.06;;;6.16;100.00
41686;BME280;27370;42.764;23.432;2022-12-29T08:05:13;96580.81;;;6.27;100.00
41686;BME280;27370;42.764;23.432;2022-12-29T08:07:39;96594.63;;;6.64;100.00
41686;BME280;27370;42.764;23.432;2022-12-29T08:10:05;96571.38;;;6.75;100.00
41686;BME280;27370;42.764;23.432;2022-12-29T08:12:31;96586.81;;;7.01;100.00
41686;BME280;27370;42.764;23.432;2022-12-29T08:14:56;96588.38;;;6.80;100.00
41686;BME280;27370;42.764;23.432;2022-12-29T08:17:22;96580.56;;;6.74;100.00
41686;BME280;27370;42.764;23.432;2022-12-29T08:19:47;96584.13;;;7.01;100.00
41686;BME280;27370;42.764;23.432;2022-12-29T08:22:14;96588.56;;;7.13;100.00
41686;BME280;27370;42.764;23.432;2022-12-29T08:24:40;96576.41;;;7.00;100.00
41686;BME280;27370;42.764;23.432;2022-12-29T08:27:05;96571.94;;;7.07;100.00
41686;BME280;27370;42.764;23.432;2022-12-29T08:29:31;96576.41;;;7.23;100.00
41686;BME280;27370;42.764;23.432;2022-12-29T08:31:57;96570.94;;;7.42;100.00
41686;BME280;27370;42.764;23.432;2022-12-29T08:34:22;96569.41;;;7.18;100.00
41686;BME280;27370;42.764;23.432;2022-12-29T08:36:48;96568.88;;;7.32;100.00
41686;BME280;27370;42.764;23.432;2022-12-29T08:39:14;96570.94;;;7.42;100.00
41686;BME280;27370;42.764;23.432;2022-12-29T08:41:39;96573.13;;;7.59;100.00
41686;BME280;27370;42.764;23.432;2022-12-29T08:44:05;96575.22;;;7.70;100.00
41686;BME280;27370;42.764;23.432;2022-12-29T08:46:31;96579.41;;;7.93;100.00
41686;BME280;27370;42.764;23.432;2022-12-29T08:48:57;96573.22;;;7.66;100.00
41686;BME280;27370;42.764;23.432;2022-12-29T08:51:23;96571.50;;;7.81;100.00
41686;BME280;27370;42.764;23.432;2022-12-29T08:53:48;96569.03;;;7.95;100.00
41686;BME280;27370;42.764;23.432;2022-12-29T08:56:14;96571.84;;;8.06;100.00
41686;BME280;27370;42.764;23.432;2022-12-29T08:58:47;96570.56;;;8.26;100.00
41686;BME280;27370;42.764;23.432;2022-12-29T09:01:12;96562.13;;;8.32;100.00
41686;BME280;27370;42.764;23.432;2022-12-29T09:03:38;96548.13;;;8.52;100.00
41686;BME280;27370;42.764;23.432;2022-12-29T09:06:04;96554.75;;;8.58;100.00
41686;BME280;27370;42.764;23.432;2022-12-29T09:08:29;96547.28;;;8.82;100.00
41686;BME280;27370;42.764;23.432;2022-12-29T09:10:55;96558.94;;;8.52;100.00
41686;BME280;27370;42.764;23.432;2022-12-29T09:13:20;96547.97;;;8.72;100.00
41686;BME280;27370;42.764;23.432;2022-12-29T09:15:46;96546.66;;;8.58;100.00
41686;BME280;27370;42.764;23.432;2022-12-29T09:18:12;96549.56;;;8.80;100.00
41686;BME280;27370;42.764;23.432;2022-12-29T09:20:37;96550.19;;;9.03;100.00
41686;BME280;27370;42.764;23.432;2022-12-29T09:23:04;96545.59;;;9.59;100.00
41686;BME280;27370;42.764;23.432;2022-12-29T09:25:31;96540.34;;;9.83;100.00
41686;BME280;27370;42.764;23.432;2022-12-29T09:27:56;96541.06;;;10.50;100.00
41686;BME280;27370;42.764;23.432;2022-12-29T09:30:23;96543.66;;;9.59;100.00
41686;BME280;27370;42.764;23.432;2022-12-29T09:32:49;96532.63;;;9.86;100.00
41686;BME280;27370;42.764;23.432;2022-12-29T09:35:15;96542.28;;;9.87;100.00
41686;BME280;27370;42.764;23.432;2022-12-29T09:37:42;96541.56;;;8.87;100.00
41686;BME280;27370;42.764;23.432;2022-12-29T09:40:22;96525.13;;;8.32;100.00
41686;BME280;27370;42.764;23.432;2022-12-29T09:46:04;96522.69;;;7.90;100.00
41686;BME280;27370;42.764;23.432;2022-12-29T09:48:39;96521.09;;;7.85;100.00
41686;BME280;27370;42.764;23.432;2022-12-29T09:51:16;96513.78;;;7.29;100.00
41686;BME280;27370;42.764;23.432;2022-12-29T09:54:21;96507.25;;;7.04;100.00
41686;BME280;27370;42.764;23.432;2022-12-29T09:56:49;96491.41;;;7.25;100.00
41686;BME280;27370;42.764;23.432;2022-12-29T09:59:17;96502.75;;;7.38;100.00
41686;BME280;27370;42.764;23.432;2022-12-29T10:01:57;96503.88;;;7.63;100.00
41686;BME280;27370;42.764;23.432;2022-12-29T10:04:27;96500.41;;;7.63;100.00
41686;BME280;27370;42.764;23.432;2022-12-29T10:07:17;96494.88;;;7.82;100.00
41686;BME280;27370;42.764;23.432;2022-12-29T10:13:00;96497.53;;;7.49;100.00
41686;BME280;27370;42.764;23.432;2022-12-29T10:25:35;96468.78;;;8.23;100.00
41686;BME280;27370;42.764;23.432;2022-12-29T10:28:06;96476.56;;;8.32;100.00
41686;BME280;27370;42.764;23.432;2022-12-29T10:30:37;96474.19;;;8.61;100.00
41686;BME280;27370;42.764;23.432;2022-12-29T10:33:11;96464.66;;;8.74;100.00
41686;BME280;27370;42.764;23.432;2022-12-29T10:35:42;96462.50;;;8.90;100.00
41686;BME280;27370;42.764;23.432;2022-12-29T10:38:25;96462.09;;;9.50;100.00
41686;BME280;27370;42.764;23.432;2022-12-29T10:41:03;96456.44;;;9.73;100.00
41686;BME280;27370;42.764;23.432;2022-12-29T10:43:36;96455.66;;;9.72;100.00
41686;BME280;27370;42.764;23.432;2022-12-29T10:46:10;96462.72;;;9.26;100.00
41686;BME280;27370;42.764;23.432;2022-12-29T10:48:37;96454.34;;;9.41;100.00
41686;BME280;27370;42.764;23.432;2022-12-29T10:51:05;96450.47;;;9.42;100.00
41686;BME280;27370;42.764;23.432;2022-12-29T10:53:38;96437.97;;;9.13;100.00
41686;BME280;27370;42.764;23.432;2022-12-29T10:56:13;96448.06;;;9.27;100.00
41686;BME280;27370;42.764;23.432;2022-12-29T10:58:42;96451.88;;;9.18;100.00
41686;BME280;27370;42.764;23.432;2022-12-29T11:01:12;96444.56;;;9.23;100.00
41686;BME280;27370;42.764;23.432;2022-12-29T11:06:24;96434.91;;;9.21;100.00
41686;BME280;27370;42.764;23.432;2022-12-29T11:08:57;96429.06;;;9.09;100.00
41686;BME280;27370;42.764;23.432;2022-12-29T11:11:26;96432.56;;;9.13;100.00
41686;BME280;27370;42.764;23.432;2022-12-29T11:14:13;96431.28;;;9.00;100.00
41686;BME280;27370;42.764;23.432;2022-12-29T11:16:39;96419.56;;;8.81;100.00
41686;BME280;27370;42.764;23.432;2022-12-29T11:19:22;96426.69;;;9.04;100.00
41686;BME280;27370;42.764;23.432;2022-12-29T11:21:48;96420.34;;;9.40;100.00
41686;BME280;27370;42.764;23.432;2022-12-29T11:24:23;96423.09;;;9.47;100.00
41686;BME280;27370;42.764;23.432;2022-12-29T11:26:51;96415.41;;;9.53;100.00
41686;BME280;27370;42.764;23.432;2022-12-29T11:31:55;96411.09;;;9.41;100.00
41686;BME280;27370;42.764;23.432;2022-12-29T11:34:31;96417.78;;;8.96;100.00
41686;BME280;27370;42.764;23.432;2022-12-29T11:37:04;96417.91;;;9.14;100.00
41686;BME280;27370;42.764;23.432;2022-12-29T11:39:36;96408.75;;;9.36;100.00
41686;BME280;27370;42.764;23.432;2022-12-29T11:42:03;96401.97;;;8.98;100.00
41686;BME280;27370;42.764;23.432;2022-12-29T11:44:35;96407.44;;;9.05;100.00
41686;BME280;27370;42.764;23.432;2022-12-29T11:47:02;96406.38;;;9.28;100.00
41686;BME280;27370;42.764;23.432;2022-12-29T11:49:29;96395.63;;;9.35;100.00
41686;BME280;27370;42.764;23.432;2022-12-29T11:51:55;96404.13;;;9.37;100.00
41686;BME280;27370;42.764;23.432;2022-12-29T11:54:29;96398.03;;;9.54;100.00
41686;BME280;27370;42.764;23.432;2022-12-29T11:56:57;96396.13;;;9.62;100.00
41686;BME280;27370;42.764;23.432;2022-12-29T12:01:56;96397.09;;;9.25;100.00
41686;BME280;27370;42.764;23.432;2022-12-29T12:04:24;96392.94;;;9.38;100.00
41686;BME280;27370;42.764;23.432;2022-12-29T12:09:43;96397.56;;;9.34;100.00
41686;BME280;27370;42.764;23.432;2022-12-29T12:12:24;96387.91;;;9.37;100.00
41686;BME280;27370;42.764;23.432;2022-12-29T12:14:56;96376.75;;;8.80;100.00
41686;BME280;27370;42.764;23.432;2022-12-29T12:17:53;96389.31;;;9.13;100.00
41686;BME280;27370;42.764;23.432;2022-12-29T12:26:01;96362.28;;;9.09;100.00
41686;BME280;27370;42.764;23.432;2022-12-29T12:28:42;96368.84;;;9.08;100.00
41686;BME280;27370;42.764;23.432;2022-12-29T12:33:48;96356.03;;;8.98;100.00
41686;BME280;27370;42.764;23.432;2022-12-29T12:36:59;96364.09;;;8.91;100.00
41686;BME280;27370;42.764;23.432;2022-12-29T12:48:39;96366.78;;;9.71;100.00
41686;BME280;27370;42.764;23.432;2022-12-29T13:00:02;96363.03;;;10.07;100.00
41686;BME280;27370;42.764;23.432;2022-12-29T13:13:46;96368.00;;;9.77;100.00
41686;BME280;27370;42.764;23.432;2022-12-29T13:26:25;96348.53;;;9.39;100.00
41686;BME280;27370;42.764;23.432;2022-12-29T13:29:06;96368.69;;;9.60;100.00
41686;BME280;27370;42.764;23.432;2022-12-29T13:32:09;96362.50;;;9.52;100.00
41686;BME280;27370;42.764;23.432;2022-12-29T13:34:47;96367.53;;;9.57;100.00
41686;BME280;27370;42.764;23.432;2022-12-29T13:37:18;96361.34;;;9.53;100.00
41686;BME280;27370;42.764;23.432;2022-12-29T13:39:55;96365.19;;;9.52;100.00
41686;BME280;27370;42.764;23.432;2022-12-29T13:42:24;96371.34;;;9.49;100.00
41686;BME280;27370;42.764;23.432;2022-12-29T13:45:02;96368.66;;;9.49;100.00
41686;BME280;27370;42.764;23.432;2022-12-29T13:47:45;96358.88;;;9.19;100.00
41686;BME280;27370;42.764;23.432;2022-12-29T13:50:24;96357.22;;;9.04;100.00
41686;BME280;27370;42.764;23.432;2022-12-29T13:55:55;96361.31;;;8.80;100.00
41686;BME280;27370;42.764;23.432;2022-12-29T14:03:49;96361.66;;;8.27;100.00
41686;BME280;27370;42.764;23.432;2022-12-29T14:06:31;96367.69;;;8.14;100.00
41686;BME280;27370;42.764;23.432;2022-12-29T14:09:02;96360.25;;;8.00;100.00
41686;BME280;27370;42.764;23.432;2022-12-29T14:11:40;96360.06;;;7.82;100.00
41686;BME280;27370;42.764;23.432;2022-12-29T14:14:21;96365.38;;;7.72;100.00
41686;BME280;27370;42.764;23.432;2022-12-29T14:16:47;96356.34;;;7.57;100.00
41686;BME280;27370;42.764;23.432;2022-12-29T14:19:17;96375.16;;;7.53;100.00
41686;BME280;27370;42.764;23.432;2022-12-29T14:34:46;96373.56;;;7.49;100.00
41686;BME280;27370;42.764;23.432;2022-12-29T14:40:08;96383.75;;;7.32;100.00
41686;BME280;27370;42.764;23.432;2022-12-29T14:42:40;96397.75;;;7.15;100.00
41686;BME280;27370;42.764;23.432;2022-12-29T14:47:40;96388.63;;;7.23;100.00
41686;BME280;27370;42.764;23.432;2022-12-29T14:53:02;96395.03;;;7.12;100.00
41686;BME280;27370;42.764;23.432;2022-12-29T14:55:38;96384.09;;;7.01;100.00
41686;BME280;27370;42.764;23.432;2022-12-29T15:00:39;96396.22;;;7.14;100.00
41686;BME280;27370;42.764;23.432;2022-12-29T15:05:44;96397.19;;;6.76;100.00
41686;BME280;27370;42.764;23.432;2022-12-29T15:08:13;96375.69;;;6.53;100.00
41686;BME280;27370;42.764;23.432;2022-12-29T15:11:01;96383.75;;;6.53;100.00
41686;BME280;27370;42.764;23.432;2022-12-29T15:13:37;96379.53;;;6.52;100.00
41686;BME280;27370;42.764;23.432;2022-12-29T15:16:04;96382.78;;;6.38;100.00
41686;BME280;27370;42.764;23.432;2022-12-29T15:18:31;96380.50;;;6.18;100.00
41686;BME280;27370;42.764;23.432;2022-12-29T15:21:00;96386.09;;;6.09;100.00
41686;BME280;27370;42.764;23.432;2022-12-29T15:23:26;96392.84;;;5.80;100.00
41686;BME280;27370;42.764;23.432;2022-12-29T15:26:00;96391.19;;;5.91;100.00
41686;BME280;27370;42.764;23.432;2022-12-29T15:28:27;96388.53;;;5.75;100.00
41686;BME280;27370;42.764;23.432;2022-12-29T15:31:02;96389.03;;;5.42;100.00
41686;BME280;27370;42.764;23.432;2022-12-29T15:33:28;96380.78;;;4.97;100.00
41686;BME280;27370;42.764;23.432;2022-12-29T15:35:56;96382.75;;;4.80;100.00
41686;BME280;27370;42.764;23.432;2022-12-29T15:38:25;96390.09;;;4.83;100.00